Baldwin, Louisiana
Current Conditions -  °F | °C
As of 6:53 AM on Tuesday 21 Oct 2014 (Local Time) from KARA Reporting Station
Clear Clear  
Wind Chill: 58°   Ceiling: Unl
Heat Index: 58°   Visibility: 10mi
Dew Point: 54°   Wind: 3mph
Humidity: 87%   Direction: 10°N
Pressure: 30.04"   Gusts: NA
Location:  29.84°N, 91.54°W
Report Text: KARA 211153Z 01003KT 10SM CLR 14/12 A3004 RMK AO2 SLP173 T01440122 10172 20128 51011
Loading
Personal Weather Stations






























Interactive Weather Map
Tropical Storm Tracking
New forecast layout! Learn more

10-Day Weather Forecast

Advertisements
Track Severe Weather on mobile